createdAt,value
2019-02-20T00:04:33.035Z,20.87
2019-02-20T00:10:28.063Z,19.45
2019-02-20T00:16:23.038Z,20.91
2019-02-20T00:22:18.071Z,18.33
2019-02-20T00:28:13.048Z,21.45
2019-02-20T00:34:08.328Z,19.87
2019-02-20T00:40:03.068Z,20.33
2019-02-20T00:45:58.123Z,20.52
2019-02-20T00:51:53.130Z,22.71
2019-02-20T00:57:48.068Z,21.93
2019-02-20T01:03:43.101Z,22.78
2019-02-20T01:09:38.091Z,24.15
2019-02-20T01:15:33.073Z,21.66
2019-02-20T01:21:28.093Z,24.13
2019-02-20T01:27:23.109Z,24.13
2019-02-20T01:33:18.096Z,24.52
2019-02-20T01:39:13.101Z,24.09
2019-02-20T01:45:08.119Z,23.15
2019-02-20T01:51:03.103Z,24.05
2019-02-20T01:56:58.107Z,24.54
2019-02-20T02:02:53.154Z,23.99
2019-02-20T02:08:48.108Z,25.68
2019-02-20T02:14:43.104Z,25.56
2019-02-20T02:20:38.122Z,24.25
2019-02-20T02:26:33.107Z,23.84
2019-02-20T02:32:28.166Z,25.87
2019-02-20T02:38:23.117Z,26.55
2019-02-20T02:44:18.140Z,23.93
2019-02-20T02:50:13.251Z,25.47
2019-02-20T02:56:08.119Z,27.86
2019-02-20T03:02:03.149Z,25.92
2019-02-20T03:07:58.155Z,25.69
2019-02-20T03:13:53.148Z,25.5
2019-02-20T03:19:48.196Z,24.14
2019-02-20T03:25:43.155Z,23.89
2019-02-20T03:31:38.166Z,24
2019-02-20T03:37:33.218Z,24.9
2019-02-20T03:43:28.169Z,23.85
2019-02-20T03:49:23.206Z,22.62
2019-02-20T03:55:18.166Z,22.95
2019-02-20T04:01:13.185Z,22.11
2019-02-20T04:07:08.167Z,22.8
2019-02-20T04:13:03.183Z,23.6
2019-02-20T04:18:58.173Z,22.64
2019-02-20T04:24:53.206Z,23.59
2019-02-20T04:30:48.238Z,22.48
2019-02-20T04:36:43.218Z,22.77
2019-02-20T04:42:38.201Z,24.48
2019-02-20T04:48:33.200Z,23.68
2019-02-20T04:54:28.212Z,20.82
2019-02-20T05:00:23.203Z,22.25
2019-02-20T05:06:18.225Z,23.47
2019-02-20T05:12:13.203Z,23.37
2019-02-20T05:18:08.275Z,22.66
2019-02-20T05:24:03.231Z,21.44
2019-02-20T05:29:58.304Z,18.85
2019-02-20T05:35:53.237Z,18.34
2019-02-20T05:41:48.254Z,20.13
2019-02-20T05:47:43.250Z,19.48
2019-02-20T05:53:38.272Z,19.41
2019-02-20T05:59:33.246Z,19.91
2019-02-20T06:05:28.284Z,18.8
2019-02-20T06:11:23.240Z,19.87
2019-02-20T06:17:18.236Z,31.33
2019-02-20T06:23:13.272Z,20.34
2019-02-20T06:29:08.291Z,19.13
2019-02-20T06:35:03.330Z,20.34
2019-02-20T06:40:58.290Z,19.99
2019-02-20T06:46:53.252Z,20.41
2019-02-20T06:52:48.305Z,24
2019-02-20T06:58:43.264Z,23.7
2019-02-20T07:04:38.305Z,23.08
2019-02-20T07:10:33.320Z,21.77
2019-02-20T07:16:28.319Z,20.78
2019-02-20T07:22:23.297Z,18.38
2019-02-20T07:28:18.328Z,19.93
2019-02-20T07:34:13.296Z,21.57
2019-02-20T07:40:08.292Z,18.56
2019-02-20T07:46:03.313Z,18.54
2019-02-20T07:51:58.294Z,15.77
2019-02-20T07:57:53.339Z,15.32
2019-02-20T08:03:48.300Z,15.33
2019-02-20T08:09:43.354Z,15.1
2019-02-20T08:15:38.363Z,14.84
2019-02-20T08:21:33.341Z,14.49
2019-02-20T08:27:28.307Z,14.74
2019-02-20T08:33:23.333Z,13.33
2019-02-20T08:39:18.329Z,11.97
2019-02-20T08:45:13.356Z,12.08
2019-02-20T08:51:08.381Z,11.34
2019-02-20T08:57:03.360Z,10.42
2019-02-20T09:02:58.342Z,12.4
2019-02-20T09:08:53.334Z,11.77
2019-02-20T09:14:48.410Z,11.33
2019-02-20T09:20:43.360Z,12.92
2019-02-20T09:26:38.380Z,12.73
2019-02-20T09:32:33.380Z,12.44
2019-02-20T09:38:28.398Z,11.98
2019-02-20T09:44:23.373Z,11.62
2019-02-20T09:50:18.405Z,12.24
2019-02-20T09:56:13.367Z,11.64
2019-02-20T10:02:08.404Z,11.36
2019-02-20T10:08:04.523Z,10.41
2019-02-20T10:13:58.405Z,11.21
2019-02-20T10:19:53.423Z,10.86
2019-02-20T10:25:48.380Z,10.31
2019-02-20T10:31:43.372Z,9.32
2019-02-20T10:37:38.410Z,9.21
2019-02-20T10:43:33.423Z,7.9
2019-02-20T10:49:28.426Z,8.33
2019-02-20T10:55:23.476Z,6.88
2019-02-20T11:01:18.406Z,5.92
2019-02-20T11:07:13.414Z,5.96
2019-02-20T11:13:08.434Z,6.18
2019-02-20T11:19:03.406Z,5.6
2019-02-20T11:24:58.464Z,5.18
2019-02-20T11:30:53.480Z,5.07
2019-02-20T11:36:49.392Z,5.13
2019-02-20T11:42:43.423Z,5.51
2019-02-20T11:48:38.438Z,6.89
2019-02-20T11:54:33.463Z,5.92
2019-02-20T12:00:28.474Z,6.17
2019-02-20T12:06:23.452Z,5.81
2019-02-20T12:12:18.465Z,6.21
2019-02-20T12:18:17.287Z,5.28
2019-02-20T12:24:08.489Z,3.63
2019-02-20T12:30:03.460Z,4.2
2019-02-20T12:35:58.513Z,4.67
2019-02-20T12:41:53.521Z,4.59
2019-02-20T12:47:48.527Z,4.67
2019-02-20T12:53:43.677Z,6.51
2019-02-20T12:59:38.517Z,5.95
2019-02-20T13:05:33.539Z,4.93
2019-02-20T13:11:28.506Z,4.61
2019-02-20T13:17:23.518Z,5.07
2019-02-20T13:23:20.047Z,4.95
2019-02-20T13:29:13.499Z,5.19
2019-02-20T13:35:08.531Z,4.21
2019-02-20T13:41:03.512Z,4.97
2019-02-20T13:46:58.544Z,4.87
2019-02-20T13:52:53.593Z,4.56
2019-02-20T13:58:48.514Z,4.99
2019-02-20T14:04:43.517Z,4.67
2019-02-20T14:10:38.544Z,4.64
2019-02-20T14:16:33.624Z,4.33
2019-02-20T14:22:28.536Z,5.25
2019-02-20T14:28:23.588Z,4.97
2019-02-20T14:34:18.530Z,5.47
2019-02-20T14:40:13.726Z,4.27
2019-02-20T14:46:08.621Z,4.57
2019-02-20T14:52:03.558Z,5.05
2019-02-20T14:57:58.578Z,5.31
2019-02-20T15:03:53.560Z,4.19
2019-02-20T15:09:48.572Z,4.7
2019-02-20T15:15:43.572Z,5.96
2019-02-20T15:21:38.571Z,5.24
2019-02-20T15:27:33.591Z,5.58
2019-02-20T15:33:28.596Z,5.97
2019-02-20T15:39:23.573Z,5.19
2019-02-20T15:45:18.603Z,5.71
2019-02-20T15:51:13.603Z,6.21
2019-02-20T15:57:08.648Z,6.3
2019-02-20T16:03:03.604Z,6.04
2019-02-20T16:08:58.633Z,7.29
2019-02-20T16:14:53.605Z,8.19
2019-02-20T16:20:48.615Z,8.83
2019-02-20T16:26:43.609Z,9.06
2019-02-20T16:32:38.614Z,9.7
2019-02-20T16:38:33.634Z,9.7
2019-02-20T16:44:28.642Z,9.25
2019-02-20T16:50:23.610Z,10.34
2019-02-20T16:56:18.627Z,10.36
2019-02-20T17:02:13.627Z,9.7
2019-02-20T17:08:08.682Z,11.06
2019-02-20T17:14:03.679Z,13.63
2019-02-20T17:19:58.675Z,12.6
2019-02-20T17:25:53.665Z,13.97
2019-02-20T17:31:48.684Z,13.05
2019-02-20T17:37:43.692Z,12.39
2019-02-20T17:43:38.705Z,13.14
2019-02-20T17:49:33.653Z,13.81
2019-02-20T17:55:28.653Z,13.84
2019-02-20T18:01:23.683Z,13.8
2019-02-20T18:07:18.679Z,14.44
2019-02-20T18:13:13.767Z,14.81
2019-02-20T18:19:08.673Z,16.59
2019-02-20T18:25:03.704Z,15.57
2019-02-20T18:30:58.717Z,19.4
2019-02-20T18:36:53.711Z,17.73
2019-02-20T18:42:48.701Z,18.52
2019-02-20T18:48:43.729Z,20.08
2019-02-20T18:54:38.694Z,19.2
2019-02-20T19:00:33.702Z,19.41
2019-02-20T19:06:28.721Z,17.79
2019-02-20T19:12:23.748Z,17.96
2019-02-20T19:18:18.732Z,16.91
2019-02-20T19:24:13.750Z,18.58
2019-02-20T19:30:09.722Z,17.78
2019-02-20T19:36:03.733Z,20.26
2019-02-20T19:41:58.731Z,19.24
2019-02-20T19:47:53.783Z,17.9
2019-02-20T19:53:48.802Z,16.88
2019-02-20T19:59:44.780Z,17.07
2019-02-20T20:05:38.745Z,18.2
2019-02-20T20:11:44.190Z,17.42
2019-02-20T20:17:28.752Z,18.77
2019-02-20T20:23:23.758Z,17.04
2019-02-20T20:29:18.783Z,19.75
2019-02-20T20:35:15.589Z,17.97
2019-02-20T20:41:09.245Z,16.96
2019-02-20T20:47:03.771Z,18.97
2019-02-20T20:52:58.757Z,18.29
2019-02-20T20:58:53.810Z,19.12
2019-02-20T21:04:48.817Z,19.85
2019-02-20T21:10:45.786Z,20.82
2019-02-20T21:16:38.833Z,17.12
2019-02-20T21:22:33.795Z,18.57
2019-02-20T21:28:28.793Z,18.3
2019-02-20T21:34:23.797Z,19.68
2019-02-20T21:40:18.838Z,20.88
2019-02-20T21:46:13.801Z,18.34
2019-02-20T21:52:08.796Z,19.78
2019-02-20T21:58:03.842Z,18.77
2019-02-20T22:03:58.864Z,18.43
2019-02-20T22:09:57.786Z,18.31
2019-02-20T22:15:48.818Z,18.9
2019-02-20T22:21:43.825Z,18.83
2019-02-20T22:27:38.852Z,18.67
2019-02-20T22:33:33.859Z,19.16
2019-02-20T22:39:28.834Z,19.99
2019-02-20T22:45:23.855Z,18.54
2019-02-20T22:51:18.874Z,18.6
2019-02-20T22:57:13.867Z,18.36
2019-02-20T23:03:08.898Z,18.65
2019-02-20T23:09:03.891Z,18.13
2019-02-20T23:14:58.856Z,18.1
2019-02-20T23:20:53.877Z,16.65
2019-02-20T23:26:48.880Z,18.34
2019-02-20T23:32:43.868Z,16.85
2019-02-20T23:38:38.921Z,16.68
2019-02-20T23:44:33.883Z,19.07
2019-02-20T23:50:28.860Z,16.53
2019-02-20T23:56:23.950Z,16.08
